createdAt,value
2023-05-13T00:00:50.367Z,77.08
2023-05-13T00:01:50.380Z,78.34
2023-05-13T00:02:50.429Z,77.12
2023-05-13T00:03:50.477Z,77.22
2023-05-13T00:04:50.318Z,76.88
2023-05-13T00:05:50.301Z,76.57
2023-05-13T00:06:50.285Z,76.57
2023-05-13T00:07:50.281Z,76.26
2023-05-13T00:08:50.251Z,76.53
2023-05-13T00:09:50.245Z,76.64
2023-05-13T00:10:50.240Z,76.88
2023-05-13T00:11:50.221Z,76.43
2023-05-13T00:12:50.217Z,75.82
2023-05-13T00:13:50.204Z,75.62
2023-05-13T00:14:50.208Z,75.41
2023-05-13T00:15:50.225Z,75.62
2023-05-13T00:16:50.191Z,75.96
2023-05-13T00:17:50.147Z,76.37
2023-05-13T00:18:50.211Z,76.57
2023-05-13T00:19:50.148Z,77.08
2023-05-13T00:20:50.119Z,77.08
2023-05-13T00:21:50.103Z,77.39
2023-05-13T00:22:50.100Z,77.39
2023-05-13T00:23:50.090Z,77.59
2023-05-13T00:24:50.093Z,77.49
2023-05-13T00:25:50.077Z,78.00
2023-05-13T00:26:50.062Z,78.31
2023-05-13T00:27:50.042Z,78.20
2023-05-13T00:28:50.025Z,79.02
2023-05-13T00:29:50.038Z,78.41
2023-05-13T00:30:50.005Z,78.41
2023-05-13T00:31:50.045Z,78.20
2023-05-13T00:32:50.060Z,78.72
2023-05-13T00:33:49.969Z,78.31
2023-05-13T00:34:49.981Z,78.11
2023-05-13T00:35:49.966Z,78.11
2023-05-13T00:36:49.970Z,78.61
2023-05-13T00:37:49.934Z,78.52
2023-05-13T00:38:49.916Z,78.52
2023-05-13T00:39:49.909Z,78.00
2023-05-13T00:40:49.921Z,78.41
2023-05-13T00:41:49.873Z,78.31
2023-05-13T00:42:49.876Z,78.11
2023-05-13T00:43:49.874Z,79.33
2023-05-13T00:44:49.849Z,79.27
2023-05-13T00:45:49.852Z,79.47
2023-05-13T00:46:49.825Z,80.29
2023-05-13T00:47:49.923Z,79.57
2023-05-13T00:48:49.810Z,79.71
2023-05-13T00:49:49.824Z,79.91
2023-05-13T00:50:49.794Z,80.02
2023-05-13T00:51:49.777Z,80.43
2023-05-13T00:52:49.786Z,80.53
2023-05-13T00:53:49.740Z,80.43
2023-05-13T00:54:49.784Z,80.12
2023-05-13T00:55:49.734Z,80.43
2023-05-13T00:56:49.765Z,80.43
2023-05-13T00:57:49.700Z,80.22
2023-05-13T00:58:49.696Z,80.12
2023-05-13T00:59:49.686Z,80.22
2023-05-13T01:00:49.710Z,80.22
2023-05-13T01:01:49.664Z,80.22
2023-05-13T01:02:49.701Z,80.83
2023-05-13T01:03:49.637Z,80.33
2023-05-13T01:04:49.632Z,79.71
2023-05-13T01:05:49.612Z,79.71
2023-05-13T01:06:49.618Z,79.68
2023-05-13T01:07:49.612Z,80.12
2023-05-13T01:08:49.596Z,78.86
2023-05-13T01:09:49.589Z,79.68
2023-05-13T01:10:49.607Z,78.96
2023-05-13T01:11:49.539Z,78.55
2023-05-13T01:12:49.534Z,78.34
2023-05-13T01:13:49.532Z,78.75
2023-05-13T01:14:49.515Z,78.65
2023-05-13T01:15:49.495Z,78.75
2023-05-13T01:16:49.592Z,79.27
2023-05-13T01:17:49.534Z,78.89
2023-05-13T01:18:49.544Z,78.89
2023-05-13T01:19:49.479Z,79.71
2023-05-13T01:20:49.446Z,79.41
2023-05-13T01:21:49.446Z,78.89
2023-05-13T01:22:49.435Z,79.20
2023-05-13T01:23:49.410Z,78.75
2023-05-13T01:24:49.404Z,78.14
2023-05-13T01:25:49.382Z,78.34
2023-05-13T01:26:49.387Z,78.14
2023-05-13T01:27:49.356Z,77.42
2023-05-13T01:28:49.361Z,77.42
2023-05-13T01:29:49.338Z,77.63
2023-05-13T01:30:49.368Z,77.42
2023-05-13T01:31:49.334Z,77.53
2023-05-13T01:32:49.349Z,77.53
2023-05-13T01:33:49.308Z,78.24
2023-05-13T01:34:49.315Z,78.49
2023-05-13T01:35:49.276Z,79.10
2023-05-13T01:36:49.277Z,78.93
2023-05-13T01:37:49.261Z,79.24
2023-05-13T01:38:49.244Z,79.34
2023-05-13T01:39:49.241Z,79.24
2023-05-13T01:40:49.226Z,79.03
2023-05-13T01:41:49.229Z,78.83
2023-05-13T01:42:49.220Z,78.93
2023-05-13T01:43:49.225Z,78.83
2023-05-13T01:44:49.177Z,79.34
2023-05-13T01:45:49.158Z,79.96
2023-05-13T01:46:49.364Z,78.72
2023-05-13T01:47:49.237Z,79.44
2023-05-13T01:48:49.145Z,78.52
2023-05-13T01:49:49.135Z,78.93
2023-05-13T01:50:49.126Z,78.93
2023-05-13T01:51:49.099Z,77.70
2023-05-13T01:52:49.105Z,78.11
2023-05-13T01:53:49.088Z,77.97
2023-05-13T01:54:49.097Z,77.97
2023-05-13T01:55:49.088Z,77.36
2023-05-13T01:56:49.054Z,77.97
2023-05-13T01:57:49.027Z,77.56
2023-05-13T01:58:49.030Z,78.08
2023-05-13T01:59:49.031Z,78.63
2023-05-13T02:00:49.020Z,79.03
2023-05-13T02:01:49.016Z,78.21
2023-05-13T02:02:49.126Z,78.11
2023-05-13T02:03:48.994Z,78.83
2023-05-13T02:04:48.949Z,78.21
2023-05-13T02:05:48.947Z,78.01
2023-05-13T02:06:48.938Z,78.72
2023-05-13T02:07:48.937Z,78.31
2023-05-13T02:08:48.911Z,78.01
2023-05-13T02:09:48.932Z,79.44
2023-05-13T02:10:48.953Z,78.63
2023-05-13T02:11:48.883Z,79.34
2023-05-13T02:12:48.902Z,79.38
2023-05-13T02:13:48.869Z,79.79
2023-05-13T02:14:48.851Z,80.51
2023-05-13T02:15:48.853Z,79.48
2023-05-13T02:16:48.844Z,79.89
2023-05-13T02:17:48.871Z,79.48
2023-05-13T02:18:48.902Z,80.51
2023-05-13T02:19:48.814Z,79.38
2023-05-13T02:20:48.784Z,79.38
2023-05-13T02:21:48.768Z,79.99
2023-05-13T02:22:48.778Z,80.19
2023-05-13T02:23:48.759Z,79.99
2023-05-13T02:24:48.736Z,79.79
2023-05-13T02:25:48.747Z,78.86
2023-05-13T02:26:48.720Z,78.45
2023-05-13T02:27:48.719Z,78.05
2023-05-13T02:28:48.712Z,77.70
2023-05-13T02:29:48.734Z,78.01
2023-05-13T02:30:48.717Z,77.70
2023-05-13T02:31:48.770Z,78.05
2023-05-13T02:32:48.731Z,78.25
2023-05-13T02:33:48.663Z,78.15
2023-05-13T02:34:48.710Z,79.17
2023-05-13T02:35:48.697Z,78.76
2023-05-13T02:36:48.666Z,78.56
2023-05-13T02:37:48.698Z,79.48
2023-05-13T02:38:48.755Z,78.76
2023-05-13T02:39:48.703Z,78.25
2023-05-13T02:40:48.610Z,78.21
2023-05-13T02:41:48.568Z,78.31
2023-05-13T02:42:48.554Z,78.21
2023-05-13T02:43:48.553Z,79.24
2023-05-13T02:44:48.586Z,78.31
2023-05-13T02:45:48.544Z,78.31
2023-05-13T02:46:48.511Z,78.83
2023-05-13T02:47:48.552Z,79.24
2023-05-13T02:48:48.478Z,78.15
2023-05-13T02:49:48.487Z,78.97
2023-05-13T02:50:48.479Z,78.66
2023-05-13T02:51:48.449Z,78.25
2023-05-13T02:52:48.437Z,77.80
2023-05-13T02:53:48.430Z,78.11
2023-05-13T02:54:48.454Z,78.21
2023-05-13T02:55:48.411Z,78.11
2023-05-13T02:56:48.394Z,77.80
2023-05-13T02:57:48.393Z,77.91
2023-05-13T02:58:48.367Z,78.21
2023-05-13T02:59:48.372Z,77.80
2023-05-13T03:00:48.354Z,78.63
2023-05-13T03:01:48.441Z,78.01
2023-05-13T03:02:48.390Z,77.70
2023-05-13T03:03:48.389Z,77.70
2023-05-13T03:04:48.320Z,77.91
2023-05-13T03:05:48.316Z,77.50
2023-05-13T03:06:48.290Z,77.29
2023-05-13T03:07:48.292Z,77.15
2023-05-13T03:08:48.305Z,77.76
2023-05-13T03:09:48.272Z,77.36
2023-05-13T03:10:48.233Z,77.97
2023-05-13T03:11:48.211Z,79.03
2023-05-13T03:12:48.225Z,79.34
2023-05-13T03:13:48.224Z,78.83
2023-05-13T03:14:48.211Z,79.13
2023-05-13T03:15:48.262Z,79.79
2023-05-13T03:16:48.166Z,79.89
2023-05-13T03:17:48.218Z,80.19
2023-05-13T03:18:48.212Z,80.30
2023-05-13T03:19:48.147Z,80.85
2023-05-13T03:20:48.103Z,80.81
2023-05-13T03:21:48.077Z,80.71
2023-05-13T03:22:48.170Z,81.22
2023-05-13T03:23:48.058Z,81.46
2023-05-13T03:24:48.044Z,80.60
2023-05-13T03:25:48.088Z,81.46
2023-05-13T03:26:48.017Z,81.26
2023-05-13T03:27:47.996Z,81.46
2023-05-13T03:28:48.015Z,81.57
2023-05-13T03:29:48.006Z,81.67
2023-05-13T03:30:48.014Z,81.36
2023-05-13T03:31:48.041Z,81.05
2023-05-13T03:32:48.005Z,81.36
2023-05-13T03:33:47.944Z,81.15
2023-05-13T03:34:47.953Z,80.95
2023-05-13T03:35:47.964Z,80.95
2023-05-13T03:36:47.916Z,81.67
2023-05-13T03:37:47.891Z,82.28
2023-05-13T03:38:47.877Z,81.77
2023-05-13T03:39:47.889Z,81.57
2023-05-13T03:40:47.858Z,81.36
2023-05-13T03:41:47.849Z,81.15
2023-05-13T03:42:47.850Z,80.85
2023-05-13T03:43:47.835Z,80.95
2023-05-13T03:44:47.812Z,81.36
2023-05-13T03:45:47.801Z,81.05
2023-05-13T03:46:47.829Z,81.05
2023-05-13T03:47:47.806Z,81.01
2023-05-13T03:48:47.782Z,80.19
2023-05-13T03:49:47.775Z,80.30
2023-05-13T03:50:47.758Z,80.19
2023-05-13T03:51:47.755Z,80.91
2023-05-13T03:52:47.732Z,80.19
2023-05-13T03:53:47.737Z,80.64
2023-05-13T03:54:47.769Z,80.40
2023-05-13T03:55:47.694Z,80.23
2023-05-13T03:56:47.694Z,80.30
2023-05-13T03:57:47.691Z,80.64
2023-05-13T03:58:47.661Z,80.64
2023-05-13T03:59:47.651Z,80.85
2023-05-13T04:00:47.668Z,81.26
2023-05-13T04:01:47.682Z,82.18
2023-05-13T04:02:47.820Z,82.01
2023-05-13T04:03:47.631Z,81.85
2023-05-13T04:04:47.632Z,82.15
2023-05-13T04:05:47.606Z,82.05
2023-05-13T04:06:47.598Z,82.36
2023-05-13T04:07:47.600Z,82.77
2023-05-13T04:08:47.577Z,83.49
2023-05-13T04:09:47.578Z,82.97
2023-05-13T04:10:47.536Z,82.87
2023-05-13T04:11:47.524Z,83.49
2023-05-13T04:12:47.518Z,83.18
2023-05-13T04:13:47.544Z,83.80
2023-05-13T04:14:47.499Z,83.59
2023-05-13T04:15:47.481Z,83.69
2023-05-13T04:16:47.509Z,83.73
2023-05-13T04:17:47.593Z,83.59
2023-05-13T04:18:47.517Z,83.59
2023-05-13T04:19:47.442Z,83.90
2023-05-13T04:20:47.448Z,84.31
2023-05-13T04:21:47.420Z,84.10
2023-05-13T04:22:47.458Z,84.41
2023-05-13T04:23:47.402Z,84.20
2023-05-13T04:24:47.384Z,83.90
2023-05-13T04:25:47.377Z,84.10
2023-05-13T04:26:47.414Z,84.10
2023-05-13T04:27:47.358Z,84.52
2023-05-13T04:28:47.342Z,84.41
2023-05-13T04:29:47.325Z,85.44
2023-05-13T04:30:47.322Z,85.54
2023-05-13T04:31:47.369Z,85.64
2023-05-13T04:32:47.354Z,84.99
2023-05-13T04:33:47.301Z,85.09
2023-05-13T04:34:47.353Z,84.47
2023-05-13T04:35:47.277Z,83.92
2023-05-13T04:36:47.258Z,83.41
2023-05-13T04:37:47.263Z,83.31
2023-05-13T04:38:47.225Z,83.47
2023-05-13T04:39:47.227Z,82.96
2023-05-13T04:40:47.212Z,83.47
2023-05-13T04:41:47.198Z,83.88
2023-05-13T04:42:47.200Z,85.93
2023-05-13T04:43:47.178Z,85.22
2023-05-13T04:44:47.175Z,84.70
2023-05-13T04:45:47.162Z,85.52
2023-05-13T04:46:47.174Z,86.04
2023-05-13T04:47:47.167Z,86.65
2023-05-13T04:48:47.134Z,86.44
2023-05-13T04:49:47.118Z,86.24
2023-05-13T04:50:47.111Z,87.26
2023-05-13T04:51:47.085Z,86.04
2023-05-13T04:52:47.083Z,85.42
2023-05-13T04:53:47.074Z,85.63
2023-05-13T04:54:47.054Z,85.58
2023-05-13T04:55:47.045Z,85.69
2023-05-13T04:56:47.036Z,85.07
2023-05-13T04:57:47.019Z,84.15
2023-05-13T04:58:47.027Z,83.95
2023-05-13T04:59:46.994Z,83.70
2023-05-13T05:00:47.011Z,84.42
2023-05-13T05:01:47.311Z,84.72
2023-05-13T05:02:47.502Z,83.60
2023-05-13T05:03:46.976Z,83.19
2023-05-13T05:04:46.982Z,83.76
2023-05-13T05:05:46.944Z,83.56
2023-05-13T05:06:46.920Z,83.05
2023-05-13T05:07:47.391Z,83.56
2023-05-13T05:08:46.910Z,82.95
2023-05-13T05:09:46.900Z,83.56
2023-05-13T05:10:46.962Z,84.85
2023-05-13T05:11:46.875Z,84.24
2023-05-13T05:12:46.867Z,84.85
2023-05-13T05:13:46.864Z,84.65
2023-05-13T05:14:46.856Z,84.85
2023-05-13T05:15:46.850Z,87.30
2023-05-13T05:16:46.847Z,88.64
2023-05-13T05:17:46.876Z,88.06
2023-05-13T05:18:47.033Z,87.76
2023-05-13T05:19:46.804Z,88.88
2023-05-13T05:20:46.773Z,88.57
2023-05-13T05:21:46.841Z,88.26
2023-05-13T05:22:46.745Z,87.76
2023-05-13T05:23:46.777Z,87.04
2023-05-13T05:24:46.828Z,85.91
2023-05-13T05:25:47.012Z,85.77
2023-05-13T05:26:46.698Z,85.77
2023-05-13T05:27:46.698Z,84.65
2023-05-13T05:28:46.716Z,84.14
2023-05-13T05:29:46.672Z,83.89
2023-05-13T05:30:46.672Z,83.59
2023-05-13T05:31:46.740Z,81.95
2023-05-13T05:32:46.735Z,82.87
2023-05-13T05:33:46.626Z,82.87
2023-05-13T05:34:46.623Z,82.67
2023-05-13T05:35:46.634Z,82.53
2023-05-13T05:36:46.619Z,82.32
2023-05-13T05:37:46.684Z,82.63
2023-05-13T05:38:46.559Z,82.53
2023-05-13T05:39:46.672Z,82.53
2023-05-13T05:40:46.697Z,82.73
2023-05-13T05:41:46.530Z,82.42
2023-05-13T05:42:46.544Z,82.12
2023-05-13T05:43:46.526Z,81.81
2023-05-13T05:44:46.512Z,81.81
2023-05-13T05:45:46.531Z,81.98
2023-05-13T05:46:46.480Z,82.18
2023-05-13T05:47:46.502Z,81.77
2023-05-13T05:48:46.472Z,82.08
2023-05-13T05:49:46.475Z,81.98
2023-05-13T05:50:46.443Z,81.87
2023-05-13T05:51:47.437Z,80.24
2023-05-13T05:52:46.411Z,80.00
2023-05-13T05:53:46.397Z,83.57
2023-05-13T05:54:46.417Z,82.75
2023-05-13T05:55:46.427Z,81.53
2023-05-13T05:56:46.363Z,80.51
2023-05-13T05:57:46.390Z,80.10
2023-05-13T05:58:46.341Z,79.90
2023-05-13T05:59:46.339Z,79.75
2023-05-13T06:00:46.335Z,79.14
2023-05-13T06:01:46.315Z,79.14
2023-05-13T06:02:46.456Z,79.66
2023-05-13T06:03:46.359Z,79.25
2023-05-13T06:04:46.323Z,80.27
2023-05-13T06:05:46.275Z,79.75
2023-05-13T06:06:46.292Z,79.52
2023-05-13T06:07:46.246Z,79.82
2023-05-13T06:08:46.230Z,81.15
2023-05-13T06:09:46.224Z,80.43
2023-05-13T06:10:46.213Z,79.52
2023-05-13T06:11:46.202Z,78.26
2023-05-13T06:12:46.197Z,78.05
2023-05-13T06:13:46.204Z,77.85
2023-05-13T06:14:46.166Z,77.24
2023-05-13T06:15:46.201Z,78.02
2023-05-13T06:16:46.149Z,78.42
2023-05-13T06:17:46.180Z,78.73
2023-05-13T06:18:46.153Z,76.39
2023-05-13T06:19:46.133Z,72.72
2023-05-13T06:20:46.091Z,70.34
2023-05-13T06:21:46.098Z,75.23
2023-05-13T06:22:46.068Z,72.99
2023-05-13T06:23:46.064Z,72.75
2023-05-13T06:24:46.063Z,74.69
2023-05-13T06:25:46.060Z,73.57
2023-05-13T06:26:46.052Z,74.04
2023-05-13T06:27:46.010Z,75.37
2023-05-13T06:28:45.998Z,76.07
2023-05-13T06:29:46.007Z,77.50
2023-05-13T06:30:46.087Z,77.60
2023-05-13T06:31:46.135Z,77.47
2023-05-13T06:33:00.027Z,77.36
2023-05-13T06:33:45.963Z,76.86
2023-05-13T06:34:45.944Z,76.95
2023-05-13T06:35:45.923Z,77.26
2023-05-13T06:36:45.952Z,77.06
2023-05-13T06:37:45.926Z,77.97
2023-05-13T06:38:45.921Z,77.67
2023-05-13T06:39:45.894Z,77.06
2023-05-13T06:40:45.886Z,77.56
2023-05-13T06:41:45.869Z,77.16
2023-05-13T06:42:45.868Z,77.87
2023-05-13T06:43:45.846Z,78.28
2023-05-13T06:44:45.857Z,77.77
2023-05-13T06:45:45.819Z,77.16
2023-05-13T06:46:45.868Z,76.72
2023-05-13T06:47:45.831Z,70.52
2023-05-13T06:48:45.828Z,70.11
2023-05-13T06:49:45.777Z,70.31
2023-05-13T06:50:45.790Z,69.87
2023-05-13T06:51:45.758Z,68.66
2023-05-13T06:52:45.776Z,67.84
2023-05-13T06:53:45.730Z,67.81
2023-05-13T06:54:45.736Z,67.20
2023-05-13T06:55:45.733Z,67.91
2023-05-13T06:56:45.699Z,66.90
2023-05-13T06:57:45.716Z,67.50
2023-05-13T06:58:45.696Z,66.90
2023-05-13T06:59:45.681Z,67.07
2023-05-13T07:00:45.694Z,64.73
2023-05-13T07:01:45.646Z,65.04
2023-05-13T07:02:45.672Z,66.26
2023-05-13T07:03:45.636Z,67.38
2023-05-13T07:04:45.614Z,67.27
2023-05-13T07:05:45.600Z,67.34
2023-05-13T07:06:45.612Z,66.83
2023-05-13T07:07:45.580Z,65.31
2023-05-13T07:08:45.565Z,65.42
2023-05-13T07:09:45.564Z,65.31
2023-05-13T07:10:45.561Z,65.11
2023-05-13T07:11:45.540Z,66.19
2023-05-13T07:12:45.527Z,66.91
2023-05-13T07:13:45.523Z,68.52
2023-05-13T07:14:45.492Z,66.77
2023-05-13T07:15:45.491Z,67.08
2023-05-13T07:16:45.560Z,62.21
2023-05-13T07:17:45.629Z,61.40
2023-05-13T07:18:45.508Z,61.00
2023-05-13T07:19:45.446Z,61.00
2023-05-13T07:20:45.440Z,62.31
2023-05-13T07:21:45.422Z,63.12
2023-05-13T07:22:45.406Z,62.89
2023-05-13T07:23:45.410Z,61.58
2023-05-13T07:24:45.408Z,61.17
2023-05-13T07:25:45.382Z,60.66
2023-05-13T07:26:45.374Z,61.88
2023-05-13T07:27:45.378Z,62.49
2023-05-13T07:28:45.351Z,63.09
2023-05-13T07:29:45.383Z,62.35
2023-05-13T07:30:45.409Z,62.66
2023-05-13T07:31:45.321Z,63.47
2023-05-13T07:32:45.345Z,62.26
2023-05-13T07:33:45.286Z,61.85
2023-05-13T07:34:45.292Z,61.14
2023-05-13T07:35:45.289Z,61.72
2023-05-13T07:36:45.284Z,59.49
2023-05-13T07:37:45.258Z,58.89
2023-05-13T07:38:45.265Z,61.21
2023-05-13T07:39:45.227Z,60.20
2023-05-13T07:40:45.210Z,59.09
2023-05-13T07:41:45.194Z,59.59
2023-05-13T07:42:45.195Z,61.32
2023-05-13T07:43:45.184Z,59.70
2023-05-13T07:44:45.167Z,59.39
2023-05-13T07:45:45.158Z,59.67
2023-05-13T07:46:45.204Z,59.27
2023-05-13T07:47:45.210Z,57.98
2023-05-13T07:48:45.145Z,58.69
2023-05-13T07:49:45.132Z,58.07
2023-05-13T07:50:45.115Z,58.07
2023-05-13T07:51:45.093Z,59.39
2023-05-13T07:52:45.097Z,59.09
2023-05-13T07:53:45.075Z,59.39
2023-05-13T07:54:45.065Z,59.09
2023-05-13T07:55:45.091Z,59.39
2023-05-13T07:56:45.036Z,58.07
2023-05-13T07:57:45.031Z,58.92
2023-05-13T07:58:45.021Z,58.61
2023-05-13T07:59:45.082Z,58.71
2023-05-13T08:00:45.000Z,59.70
2023-05-13T08:01:44.992Z,59.19
2023-05-13T08:02:45.063Z,59.29
2023-05-13T08:03:45.087Z,58.89
2023-05-13T08:04:45.009Z,59.29
2023-05-13T08:05:44.946Z,59.70
2023-05-13T08:06:44.967Z,59.29
2023-05-13T08:07:44.933Z,59.39
2023-05-13T08:08:44.912Z,59.49
2023-05-13T08:09:44.899Z,59.59
2023-05-13T08:10:44.891Z,59.19
2023-05-13T08:11:44.878Z,60.07
2023-05-13T08:12:44.874Z,58.76
2023-05-13T08:13:44.861Z,57.34
2023-05-13T08:14:46.067Z,58.33
2023-05-13T08:15:44.829Z,58.63
2023-05-13T08:16:44.957Z,56.20
2023-05-13T08:17:44.871Z,56.88
2023-05-13T08:18:44.871Z,56.58
2023-05-13T08:19:44.788Z,56.07
2023-05-13T08:20:44.778Z,56.07
2023-05-13T08:21:44.794Z,56.48
2023-05-13T08:22:44.746Z,56.85
2023-05-13T08:23:46.184Z,56.96
2023-05-13T08:24:44.740Z,56.05
2023-05-13T08:25:44.722Z,55.04
2023-05-13T08:26:44.712Z,55.57
2023-05-13T08:27:44.697Z,57.18
2023-05-13T08:28:44.680Z,57.39
2023-05-13T08:29:44.688Z,56.15
2023-05-13T08:30:44.668Z,56.05
2023-05-13T08:31:44.666Z,56.05
2023-05-13T08:32:44.647Z,56.65
2023-05-13T08:33:44.623Z,56.56
2023-05-13T08:34:44.628Z,56.15
2023-05-13T08:35:44.939Z,56.56
2023-05-13T08:36:44.594Z,55.74
2023-05-13T08:37:44.584Z,56.56
2023-05-13T08:38:44.576Z,57.34
2023-05-13T08:39:44.553Z,56.52
2023-05-13T08:40:44.552Z,58.34
2023-05-13T08:41:44.542Z,55.32
2023-05-13T08:42:44.530Z,56.73
2023-05-13T08:43:44.523Z,57.43
2023-05-13T08:44:44.488Z,58.25
2023-05-13T08:45:44.513Z,57.61
2023-05-13T08:46:44.492Z,56.81
2023-05-13T08:47:44.474Z,54.99
2023-05-13T08:48:44.471Z,55.26
2023-05-13T08:49:44.449Z,55.36
2023-05-13T08:50:44.441Z,54.86
2023-05-13T08:51:44.444Z,54.86
2023-05-13T08:52:44.417Z,56.17
2023-05-13T08:53:44.414Z,56.27
2023-05-13T08:54:44.400Z,54.66
2023-05-13T08:55:44.388Z,56.37
2023-05-13T08:56:44.387Z,57.65
2023-05-13T08:57:44.364Z,55.34
2023-05-13T08:58:44.377Z,55.74
2023-05-13T08:59:44.328Z,56.62
2023-05-13T09:00:44.348Z,56.82
2023-05-13T09:01:44.459Z,53.80
2023-05-13T09:02:44.333Z,54.61
2023-05-13T09:03:44.291Z,54.03
2023-05-13T09:04:44.319Z,55.44
2023-05-13T09:05:44.260Z,55.51
2023-05-13T09:06:44.270Z,55.51
2023-05-13T09:07:44.253Z,55.31
2023-05-13T09:08:44.241Z,55.82
2023-05-13T09:09:44.218Z,55.31
2023-05-13T09:10:44.214Z,54.88
2023-05-13T09:11:44.801Z,54.48
2023-05-13T09:12:44.220Z,53.88
2023-05-13T09:13:44.182Z,54.38
2023-05-13T09:14:44.168Z,55.29
2023-05-13T09:15:44.196Z,54.99
2023-05-13T09:16:44.150Z,55.19
2023-05-13T09:17:44.175Z,55.79
2023-05-13T09:18:44.179Z,55.96
2023-05-13T09:19:44.295Z,54.75
2023-05-13T09:20:44.104Z,53.95
2023-05-13T09:21:44.090Z,54.96
2023-05-13T09:22:44.093Z,56.57
2023-05-13T09:23:44.054Z,54.66
2023-05-13T09:24:44.064Z,55.26
2023-05-13T09:25:44.064Z,56.04
2023-05-13T09:26:44.047Z,56.34
2023-05-13T09:27:44.036Z,55.94
2023-05-13T09:28:44.005Z,56.74
2023-05-13T09:29:43.986Z,54.91
2023-05-13T09:30:46.349Z,53.40
2023-05-13T09:31:44.039Z,55.00
2023-05-13T09:32:43.993Z,53.52
2023-05-13T09:33:43.940Z,54.63
2023-05-13T09:34:43.953Z,54.20
2023-05-13T09:35:43.934Z,53.90
2023-05-13T09:36:43.917Z,54.60
2023-05-13T09:37:43.912Z,54.40
2023-05-13T09:38:43.895Z,53.40
2023-05-13T09:39:43.879Z,53.20
2023-05-13T09:40:43.878Z,53.50
2023-05-13T09:41:43.853Z,54.50
2023-05-13T09:42:43.857Z,53.32
2023-05-13T09:43:43.835Z,53.83
2023-05-13T09:44:43.831Z,54.33
2023-05-13T09:45:43.806Z,54.13
2023-05-13T09:46:43.844Z,53.80
2023-05-13T09:47:43.840Z,54.71
2023-05-13T09:48:43.786Z,55.21
2023-05-13T09:49:43.769Z,53.09
2023-05-13T09:50:43.753Z,52.39
2023-05-13T09:51:43.767Z,51.89
2023-05-13T09:52:43.753Z,52.19
2023-05-13T09:53:43.716Z,53.80
2023-05-13T09:54:43.726Z,54.00
2023-05-13T09:55:43.701Z,55.88
2023-05-13T09:56:43.700Z,55.28
2023-05-13T09:57:43.679Z,54.98
2023-05-13T09:58:43.669Z,54.96
2023-05-13T09:59:43.657Z,53.65
2023-05-13T10:00:44.049Z,52.34
2023-05-13T10:01:43.742Z,50.93
2023-05-13T10:02:43.716Z,51.54
2023-05-13T10:03:43.650Z,51.44
2023-05-13T10:04:43.602Z,53.14
2023-05-13T10:05:43.592Z,51.74
2023-05-13T10:06:43.587Z,51.14
2023-05-13T10:07:43.573Z,50.05
2023-05-13T10:08:43.572Z,50.56
2023-05-13T10:09:43.540Z,52.06
2023-05-13T10:10:43.527Z,53.05
2023-05-13T10:11:43.524Z,52.55
2023-05-13T10:12:43.523Z,51.24
2023-05-13T10:13:43.518Z,51.24
2023-05-13T10:14:43.497Z,49.45
2023-05-13T10:15:43.491Z,49.95
2023-05-13T10:16:43.517Z,51.46
2023-05-13T10:17:43.489Z,53.27
2023-05-13T10:18:43.504Z,50.56
2023-05-13T10:19:43.446Z,50.46
2023-05-13T10:20:43.428Z,51.36
2023-05-13T10:21:43.420Z,50.86
2023-05-13T10:22:43.409Z,48.55
2023-05-13T10:23:43.397Z,49.05
2023-05-13T10:24:43.394Z,48.65
2023-05-13T10:25:43.384Z,47.34
2023-05-13T10:26:43.372Z,49.76
2023-05-13T10:27:43.360Z,48.85
2023-05-13T10:28:43.346Z,49.25
2023-05-13T10:29:43.330Z,50.35
2023-05-13T10:30:43.331Z,50.35
2023-05-13T10:31:43.321Z,49.85
2023-05-13T10:32:43.343Z,50.03
2023-05-13T10:33:43.270Z,50.03
2023-05-13T10:34:43.301Z,50.13
2023-05-13T10:35:43.353Z,50.53
2023-05-13T10:36:43.275Z,50.33
2023-05-13T10:37:43.373Z,49.02
2023-05-13T10:38:43.225Z,51.54
2023-05-13T10:39:43.215Z,50.43
2023-05-13T10:40:43.225Z,50.53
2023-05-13T10:41:43.192Z,50.73
2023-05-13T10:42:43.281Z,51.14
2023-05-13T10:43:43.165Z,51.54
2023-05-13T10:44:43.158Z,52.34
2023-05-13T10:45:43.142Z,51.64
2023-05-13T10:46:43.262Z,52.44
2023-05-13T10:47:43.224Z,52.55
2023-05-13T10:48:43.507Z,52.51
2023-05-13T10:49:43.101Z,53.12
2023-05-13T10:50:43.097Z,51.31
2023-05-13T10:51:43.078Z,52.01
2023-05-13T10:52:43.070Z,51.72
2023-05-13T10:53:43.060Z,52.01
2023-05-13T10:54:43.049Z,52.51
2023-05-13T10:55:43.044Z,53.62
2023-05-13T10:56:43.027Z,52.42
2023-05-13T10:57:43.017Z,54.33
2023-05-13T10:58:43.009Z,54.13
2023-05-13T10:59:43.020Z,53.30
2023-05-13T11:00:43.009Z,51.29
2023-05-13T11:01:43.046Z,52.39
2023-05-13T11:02:43.047Z,51.49
2023-05-13T11:03:43.139Z,52.29
2023-05-13T11:04:42.940Z,52.67
2023-05-13T11:05:42.932Z,51.67
2023-05-13T11:06:42.941Z,50.56
2023-05-13T11:07:42.954Z,52.09
2023-05-13T11:08:42.885Z,51.19
2023-05-13T11:09:42.889Z,52.80
2023-05-13T11:10:42.871Z,54.50
2023-05-13T11:11:42.860Z,54.60
2023-05-13T11:12:42.860Z,53.30
2023-05-13T11:13:42.850Z,53.00
2023-05-13T11:14:42.826Z,51.89
2023-05-13T11:15:42.869Z,50.81
2023-05-13T11:16:42.837Z,51.81
2023-05-13T11:17:42.808Z,52.12
2023-05-13T11:18:42.871Z,51.61
2023-05-13T11:19:42.776Z,53.12
2023-05-13T11:20:52.047Z,51.72
2023-05-13T11:21:42.764Z,53.22
2023-05-13T11:22:42.739Z,52.12
2023-05-13T11:23:42.730Z,54.02
2023-05-13T11:24:42.728Z,53.59
2023-05-13T11:25:42.730Z,52.39
2023-05-13T11:26:42.702Z,52.29
2023-05-13T11:27:42.717Z,52.12
2023-05-13T11:28:42.671Z,52.82
2023-05-13T11:29:42.667Z,54.33
2023-05-13T11:30:42.661Z,53.70
2023-05-13T11:31:42.799Z,52.89
2023-05-13T11:32:42.632Z,51.39
2023-05-13T11:33:42.628Z,52.59
2023-05-13T11:34:42.617Z,51.09
2023-05-13T11:35:42.615Z,52.69
2023-05-13T11:36:42.591Z,52.49
2023-05-13T11:37:42.585Z,51.39
2023-05-13T11:38:42.576Z,52.69
2023-05-13T11:39:42.556Z,53.50
2023-05-13T11:40:42.555Z,52.26
2023-05-13T11:41:42.573Z,51.49
2023-05-13T11:42:42.521Z,50.59
2023-05-13T11:43:42.531Z,51.99
2023-05-13T11:44:42.498Z,52.80
2023-05-13T11:45:42.538Z,52.07
2023-05-13T11:46:42.473Z,51.26
2023-05-13T11:47:42.529Z,50.36
2023-05-13T11:48:42.455Z,52.37
2023-05-13T11:49:42.491Z,51.67
2023-05-13T11:50:42.434Z,50.96
2023-05-13T11:51:42.428Z,50.86
2023-05-13T11:52:42.565Z,51.87
2023-05-13T11:53:42.396Z,50.56
2023-05-13T11:54:42.411Z,51.09
2023-05-13T11:55:42.414Z,50.89
2023-05-13T11:56:42.359Z,50.48
2023-05-13T11:57:42.353Z,51.51
2023-05-13T11:58:42.333Z,53.52
2023-05-13T11:59:48.292Z,51.29
2023-05-13T12:00:43.563Z,52.19
2023-05-13T12:01:42.349Z,53.27
2023-05-13T12:02:42.390Z,50.16
2023-05-13T12:03:42.301Z,50.76
2023-05-13T12:04:42.296Z,49.96
2023-05-13T12:05:42.316Z,48.43
2023-05-13T12:06:42.255Z,51.34
2023-05-13T12:07:42.284Z,50.21
2023-05-13T12:08:42.242Z,50.62
2023-05-13T12:09:42.240Z,47.13
2023-05-13T12:10:42.214Z,47.83
2023-05-13T12:11:42.209Z,48.43
2023-05-13T12:12:42.190Z,44.64
2023-05-13T12:13:42.190Z,45.83
2023-05-13T12:14:42.180Z,43.72
2023-05-13T12:15:42.217Z,41.83
2023-05-13T12:16:42.159Z,42.94
2023-05-13T12:17:42.161Z,43.94
2023-05-13T12:18:42.281Z,44.14
2023-05-13T12:19:42.117Z,44.95
2023-05-13T12:20:42.101Z,45.04
2023-05-13T12:21:42.089Z,44.64
2023-05-13T12:22:42.076Z,44.74
2023-05-13T12:23:42.073Z,44.92
2023-05-13T12:24:42.066Z,47.03
2023-05-13T12:25:42.082Z,48.53
2023-05-13T12:26:42.040Z,49.31
2023-05-13T12:27:42.023Z,48.33
2023-05-13T12:28:42.014Z,49.04
2023-05-13T12:29:41.998Z,48.83
2023-05-13T12:30:42.005Z,48.96
2023-05-13T12:31:42.022Z,49.96
2023-05-13T12:32:42.008Z,50.16
2023-05-13T12:33:41.955Z,51.87
2023-05-13T12:34:41.952Z,49.46
2023-05-13T12:35:41.933Z,47.15
2023-05-13T12:36:41.938Z,47.77
2023-05-13T12:37:41.917Z,48.68
2023-05-13T12:38:41.897Z,49.91
2023-05-13T12:39:41.912Z,50.11
2023-05-13T12:40:41.864Z,49.80
2023-05-13T12:41:41.872Z,48.70
2023-05-13T12:42:41.865Z,49.01
2023-05-13T12:43:41.855Z,50.09
2023-05-13T12:44:41.824Z,49.28
2023-05-13T12:45:43.959Z,49.51
2023-05-13T12:46:41.850Z,50.31
2023-05-13T12:47:41.816Z,50.29
2023-05-13T12:48:41.790Z,50.99
2023-05-13T12:49:41.789Z,50.18
2023-05-13T12:50:41.770Z,49.88
2023-05-13T12:51:41.745Z,50.66
2023-05-13T12:52:41.738Z,49.96